Terminal Aerodrome Forecast
Issued by NWS

Home | Current Version | Previous Version | Text Only | Print | Product List | Glossary On
Versions: 1 2 3 4 5 6 7 8 9 10 11 12 13 14 15 16 17 18 19 20 21 22 23 24 25
765
FTUS41 KPBZ 290900 AAA
TAFAGC
TAF AMD
KAGC 290900Z 2909/3006 34005KT P6SM OVC011
      TEMPO 2909/2911 BKN009
     FM291400 35005KT P6SM BKN022
     FM291600 36006KT P6SM SCT035=

USA.gov is the U.S. government's official web portal to all federal, state and local government web resources and services.